createdAt,value
2018-03-02T00:00:32.729Z,-7.50
2018-03-02T00:03:00.289Z,-7.50
2018-03-02T00:05:27.993Z,-7.60
2018-03-02T00:07:55.513Z,-7.70
2018-03-02T00:10:23.811Z,-7.70
2018-03-02T00:12:51.333Z,-7.70
2018-03-02T00:15:18.915Z,-7.70
2018-03-02T00:17:46.563Z,-7.70
2018-03-02T00:20:14.103Z,-7.80
2018-03-02T00:22:42.383Z,-7.80
2018-03-02T00:25:10.675Z,-7.80
2018-03-02T00:27:38.227Z,-7.80
2018-03-02T00:30:06.554Z,-7.80
2018-03-02T00:32:34.887Z,-7.90
2018-03-02T00:35:02.455Z,-7.90
2018-03-02T00:37:29.977Z,-7.90
2018-03-02T00:39:57.524Z,-7.90
2018-03-02T00:42:25.831Z,-7.90
2018-03-02T00:44:53.367Z,-7.90
2018-03-02T00:47:21.119Z,-7.90
2018-03-02T00:49:48.681Z,-7.90
2018-03-02T00:52:17.189Z,-8.00
2018-03-02T00:54:44.769Z,-8.00
2018-03-02T00:57:12.402Z,-8.10
2018-03-02T00:59:39.931Z,-8.00
2018-03-02T01:02:08.269Z,-8.10
2018-03-02T01:04:35.846Z,-8.10
2018-03-02T01:07:03.467Z,-8.10
2018-03-02T01:09:31.052Z,-8.10
2018-03-02T01:11:58.610Z,-8.10
2018-03-02T01:14:26.166Z,-8.20
2018-03-02T01:16:53.681Z,-8.20
2018-03-02T01:19:21.217Z,-8.30
2018-03-02T01:21:48.764Z,-8.20
2018-03-02T01:24:16.394Z,-8.20
2018-03-02T01:26:43.943Z,-8.30
2018-03-02T01:29:11.469Z,-8.20
2018-03-02T01:31:39.066Z,-8.30
2018-03-02T01:34:06.595Z,-8.20
2018-03-02T01:36:34.981Z,-8.30
2018-03-02T01:39:02.500Z,-8.40
2018-03-02T01:41:30.880Z,-8.30
2018-03-02T01:43:58.390Z,-8.30
2018-03-02T01:46:25.891Z,-8.30
2018-03-02T01:48:54.246Z,-8.40
2018-03-02T01:51:33.708Z,-8.40
2018-03-02T01:54:01.223Z,-8.40
2018-03-02T01:56:28.753Z,-8.30
2018-03-02T01:58:56.334Z,-8.40
2018-03-02T02:01:23.953Z,-8.40
2018-03-02T02:03:51.618Z,-8.40
2018-03-02T02:06:19.969Z,-8.40
2018-03-02T02:08:47.480Z,-8.40
2018-03-02T02:11:15.015Z,-8.30
2018-03-02T02:13:43.298Z,-8.30
2018-03-02T02:16:10.817Z,-8.30
2018-03-02T02:18:38.367Z,-8.30
2018-03-02T02:21:05.898Z,-8.30
2018-03-02T02:23:33.418Z,-8.40
2018-03-02T02:26:00.946Z,-8.40
2018-03-02T02:28:28.597Z,-8.40
2018-03-02T02:30:56.119Z,-8.50
2018-03-02T02:33:23.632Z,-8.50
2018-03-02T02:35:52.062Z,-8.40
2018-03-02T02:38:19.571Z,-8.50
2018-03-02T02:40:47.878Z,-8.40
2018-03-02T02:43:15.918Z,-8.40
2018-03-02T02:45:43.518Z,-8.40
2018-03-02T02:48:11.035Z,-8.30
2018-03-02T02:50:38.595Z,-8.20
2018-03-02T02:53:06.862Z,-8.00
2018-03-02T02:55:35.158Z,-8.00
2018-03-02T02:58:02.693Z,-8.10
2018-03-02T03:00:30.995Z,-8.00
2018-03-02T03:02:58.513Z,-8.00
2018-03-02T03:05:26.100Z,-8.00
2018-03-02T03:07:54.468Z,-8.10
2018-03-02T03:10:22.779Z,-8.10
2018-03-02T03:12:50.437Z,-8.20
2018-03-02T03:15:17.991Z,-8.20
2018-03-02T03:17:45.974Z,-8.00
2018-03-02T03:20:13.594Z,-8.00
2018-03-02T03:22:41.140Z,-8.00
2018-03-02T03:25:09.450Z,-7.90
2018-03-02T03:27:36.961Z,-8.00
2018-03-02T03:30:04.581Z,-8.00
2018-03-02T03:32:32.106Z,-8.00
2018-03-02T03:34:59.665Z,-7.90
2018-03-02T03:37:27.981Z,-7.90
2018-03-02T03:39:55.510Z,-7.80
2018-03-02T03:42:23.113Z,-7.90
2018-03-02T03:44:50.686Z,-8.00
2018-03-02T03:47:18.226Z,-7.90
2018-03-02T03:49:46.539Z,-7.90
2018-03-02T03:52:14.065Z,-7.90
2018-03-02T03:54:41.582Z,-7.80
2018-03-02T03:57:09.093Z,-7.90
2018-03-02T03:59:36.667Z,-7.90
2018-03-02T04:02:04.961Z,-7.90
2018-03-02T04:04:32.470Z,-7.90
2018-03-02T04:07:00.042Z,-7.90
2018-03-02T04:09:27.622Z,-8.00
2018-03-02T04:11:55.198Z,-8.00
2018-03-02T04:14:23.451Z,-8.00
2018-03-02T04:16:51.731Z,-8.00
2018-03-02T04:19:20.078Z,-7.90
2018-03-02T04:21:48.418Z,-8.00
2018-03-02T04:24:16.486Z,-8.00
2018-03-02T04:26:44.025Z,-8.00
2018-03-02T04:29:11.569Z,-8.00
2018-03-02T04:31:39.109Z,-7.90
2018-03-02T04:34:07.414Z,-7.90
2018-03-02T04:36:34.939Z,-7.90
2018-03-02T04:39:02.448Z,-7.80
2018-03-02T04:41:29.982Z,-7.80
2018-03-02T04:43:57.574Z,-7.90
2018-03-02T04:46:25.146Z,-7.80
2018-03-02T04:48:52.675Z,-7.70
2018-03-02T04:51:20.202Z,-7.70
2018-03-02T04:53:47.773Z,-7.60
2018-03-02T04:56:15.970Z,-7.60
2018-03-02T04:58:43.491Z,-7.70
2018-03-02T05:01:11.038Z,-7.70
2018-03-02T05:03:39.384Z,-7.80
2018-03-02T05:06:06.853Z,-7.80
2018-03-02T05:08:34.422Z,-7.70
2018-03-02T05:11:02.817Z,-7.70
2018-03-02T05:13:31.093Z,-7.70
2018-03-02T05:15:59.362Z,-7.70
2018-03-02T05:18:26.927Z,-7.70
2018-03-02T05:20:55.205Z,-7.70
2018-03-02T05:23:23.489Z,-7.60
2018-03-02T05:25:51.029Z,-7.70
2018-03-02T05:28:19.312Z,-7.70
2018-03-02T05:30:47.684Z,-7.70
2018-03-02T05:33:17.399Z,-7.70
2018-03-02T05:35:46.561Z,-7.70
2018-03-02T05:38:14.855Z,-7.60
2018-03-02T05:40:43.133Z,-7.60
2018-03-02T05:43:11.425Z,-7.60
2018-03-02T05:45:38.942Z,-7.60
2018-03-02T05:48:06.459Z,-7.60
2018-03-02T05:50:34.791Z,-7.60
2018-03-02T05:53:03.075Z,-7.70
2018-03-02T05:55:31.427Z,-7.70
2018-03-02T05:57:59.735Z,-7.60
2018-03-02T06:00:28.039Z,-7.60
2018-03-02T06:02:55.618Z,-7.60
2018-03-02T06:05:23.121Z,-7.50
2018-03-02T06:07:51.449Z,-7.60
2018-03-02T06:10:18.958Z,-7.60
2018-03-02T06:12:46.477Z,-7.60
2018-03-02T06:15:14.015Z,-7.60
2018-03-02T06:17:41.529Z,-7.60
2018-03-02T06:20:09.063Z,-7.50
2018-03-02T06:22:37.350Z,-7.30
2018-03-02T06:25:04.886Z,-7.40
2018-03-02T06:27:32.416Z,-7.40
2018-03-02T06:29:59.938Z,-7.40
2018-03-02T06:32:27.465Z,-7.20
2018-03-02T06:34:54.979Z,-7.10
2018-03-02T06:37:22.493Z,-7.30
2018-03-02T06:39:50.757Z,-7.40
2018-03-02T06:42:18.291Z,-7.40
2018-03-02T06:44:45.882Z,-7.30
2018-03-02T06:47:14.211Z,-7.20
2018-03-02T06:49:42.439Z,-7.00
2018-03-02T06:52:10.719Z,-7.10
2018-03-02T06:54:38.235Z,-7.10
2018-03-02T06:57:05.745Z,-7.20
2018-03-02T06:59:33.269Z,-7.20
2018-03-02T07:02:00.765Z,-7.30
2018-03-02T07:04:28.273Z,-7.30
2018-03-02T07:06:55.785Z,-7.30
2018-03-02T07:09:23.289Z,-7.20
2018-03-02T07:11:50.819Z,-7.30
2018-03-02T07:14:18.319Z,-7.10
2018-03-02T07:16:47.599Z,-7.20
2018-03-02T07:19:15.106Z,-7.20
2018-03-02T07:21:44.178Z,-7.10
2018-03-02T07:24:12.462Z,-7.00
2018-03-02T07:26:39.981Z,-7.10
2018-03-02T07:29:07.504Z,-7.20
2018-03-02T07:31:35.018Z,-7.20
2018-03-02T07:34:03.319Z,-7.00
2018-03-02T07:36:30.838Z,-7.00
2018-03-02T07:38:59.145Z,-7.00
2018-03-02T07:41:26.685Z,-7.00
2018-03-02T07:43:54.203Z,-6.90
2018-03-02T07:46:21.714Z,-6.80
2018-03-02T07:48:49.221Z,-6.70
2018-03-02T07:51:18.021Z,-6.70
2018-03-02T07:53:45.927Z,-6.60
2018-03-02T07:56:13.437Z,-6.60
2018-03-02T07:58:40.969Z,-6.50
2018-03-02T08:01:08.492Z,-6.50
2018-03-02T08:03:36.008Z,-6.50
2018-03-02T08:06:03.531Z,-6.30
2018-03-02T08:08:31.038Z,-6.30
2018-03-02T08:10:59.350Z,-6.20
2018-03-02T08:13:26.858Z,-6.20
2018-03-02T08:15:54.382Z,-6.10
2018-03-02T08:18:21.890Z,-6.10
2018-03-02T08:20:50.172Z,-6.10
2018-03-02T08:23:18.438Z,-6.00
2018-03-02T08:25:47.933Z,-5.80
2018-03-02T08:28:17.138Z,-5.70
2018-03-02T08:30:45.964Z,-5.60
2018-03-02T08:33:13.462Z,-5.60
2018-03-02T08:35:40.977Z,-5.50
2018-03-02T08:38:08.502Z,-5.50
2018-03-02T08:40:36.027Z,-5.60
2018-03-02T08:43:03.557Z,-5.50
2018-03-02T08:45:31.064Z,-5.60
2018-03-02T08:47:59.350Z,-5.40
2018-03-02T08:50:26.871Z,-5.40
2018-03-02T08:52:54.378Z,-5.40
2018-03-02T08:55:21.885Z,-5.20
2018-03-02T08:57:49.400Z,-4.90
2018-03-02T09:00:17.727Z,-4.90
2018-03-02T09:02:45.857Z,-4.90
2018-03-02T09:05:13.385Z,-4.90
2018-03-02T09:07:40.893Z,-4.90
2018-03-02T09:10:08.398Z,-4.80
2018-03-02T09:12:35.914Z,-4.60
2018-03-02T09:15:03.424Z,-4.50
2018-03-02T09:17:30.933Z,-4.50
2018-03-02T09:19:58.453Z,-4.30
2018-03-02T09:22:25.997Z,-4.10
2018-03-02T09:24:53.514Z,-4.10
2018-03-02T09:27:21.030Z,-4.00
2018-03-02T09:29:48.526Z,-4.30
2018-03-02T09:32:17.039Z,-4.20
2018-03-02T09:34:46.054Z,-3.70
2018-03-02T09:37:13.575Z,-3.70
2018-03-02T09:39:41.945Z,-4.00
2018-03-02T09:42:10.222Z,-4.10
2018-03-02T09:44:39.119Z,-4.20
2018-03-02T09:47:07.334Z,-4.20
2018-03-02T09:49:35.559Z,-4.30
2018-03-02T09:52:03.796Z,-4.10
2018-03-02T09:54:31.948Z,-3.80
2018-03-02T09:57:00.938Z,-4.30
2018-03-02T09:59:29.043Z,-4.30
2018-03-02T10:01:57.171Z,-4.30
2018-03-02T10:04:25.273Z,-4.60
2018-03-02T10:06:54.141Z,-4.40
2018-03-02T10:09:22.181Z,-4.40
2018-03-02T10:11:50.512Z,-4.40
2018-03-02T10:14:18.620Z,-4.30
2018-03-02T10:16:46.914Z,-4.40
2018-03-02T10:19:15.067Z,-4.40
2018-03-02T10:21:43.292Z,-4.40
2018-03-02T10:24:12.295Z,-4.40
2018-03-02T10:26:40.448Z,-4.40
2018-03-02T10:29:09.212Z,-3.90
2018-03-02T10:31:37.094Z,-4.00
2018-03-02T10:34:05.238Z,-4.10
2018-03-02T10:36:33.432Z,-3.90
2018-03-02T10:39:01.329Z,-3.70
2018-03-02T10:41:30.090Z,-3.80
2018-03-02T10:43:57.988Z,-3.80
2018-03-02T10:46:26.701Z,-3.90
2018-03-02T10:48:54.235Z,-3.90
2018-03-02T10:51:21.743Z,-3.80
2018-03-02T10:53:49.241Z,-3.80
2018-03-02T10:56:18.040Z,-3.70
2018-03-02T10:58:45.918Z,-3.50
2018-03-02T11:01:29.075Z,-3.20
2018-03-02T11:04:00.620Z,-3.30
2018-03-02T11:06:28.134Z,-3.30
2018-03-02T11:08:55.652Z,-3.20
2018-03-02T11:11:23.222Z,-3.30
2018-03-02T11:13:50.729Z,-3.20
2018-03-02T11:16:19.006Z,-3.00
2018-03-02T11:18:47.809Z,-3.10
2018-03-02T11:21:15.395Z,-3.10
2018-03-02T11:23:42.899Z,-3.10
2018-03-02T11:26:11.169Z,-2.80
2018-03-02T11:28:39.441Z,-2.60
2018-03-02T11:31:07.714Z,-2.60
2018-03-02T11:33:35.246Z,-2.70
2018-03-02T11:36:02.758Z,-2.40
2018-03-02T11:38:30.274Z,-2.40
2018-03-02T11:40:57.768Z,-2.70
2018-03-02T11:43:25.318Z,-2.60
2018-03-02T11:45:53.591Z,-2.30
2018-03-02T11:48:21.877Z,-2.40
2018-03-02T11:50:49.433Z,-2.40
2018-03-02T11:53:17.538Z,-2.40
2018-03-02T11:55:45.071Z,-2.50
2018-03-02T11:58:12.611Z,-2.50
2018-03-02T12:00:41.899Z,-2.60
2018-03-02T12:03:10.177Z,-2.50
2018-03-02T12:05:38.435Z,-2.40
2018-03-02T12:08:06.001Z,-2.40
2018-03-02T12:10:33.551Z,-2.20
2018-03-02T12:13:01.016Z,-2.20
2018-03-02T12:15:30.312Z,-2.20
2018-03-02T12:17:57.815Z,-2.20
2018-03-02T12:20:25.325Z,-2.00
2018-03-02T12:22:53.601Z,-2.00
2018-03-02T12:25:21.113Z,-2.00
2018-03-02T12:27:48.619Z,-2.00
2018-03-02T12:30:16.972Z,-2.00
2018-03-02T12:32:44.542Z,-2.00
2018-03-02T12:35:12.139Z,-1.90
2018-03-02T12:37:39.637Z,-1.70
2018-03-02T12:40:13.434Z,-1.70
2018-03-02T12:42:40.950Z,-1.60
2018-03-02T12:45:08.463Z,-1.70
2018-03-02T12:47:35.960Z,-1.80
2018-03-02T12:50:03.595Z,-1.90
2018-03-02T12:52:31.862Z,-2.00
2018-03-02T12:54:59.370Z,-2.00
2018-03-02T12:57:26.886Z,-2.00
2018-03-02T12:59:55.165Z,-1.90
2018-03-02T13:02:22.697Z,-1.90
2018-03-02T13:04:50.214Z,-1.90
2018-03-02T13:07:17.739Z,-1.80
2018-03-02T13:09:46.757Z,-1.70
2018-03-02T13:12:14.277Z,-1.70
2018-03-02T13:14:42.579Z,-1.60
2018-03-02T13:17:10.088Z,-1.60
2018-03-02T13:19:37.599Z,-1.60
2018-03-02T13:22:05.126Z,-1.40
2018-03-02T13:24:32.641Z,-1.40
2018-03-02T13:27:11.906Z,-1.30
2018-03-02T13:29:39.435Z,-1.30
2018-03-02T13:32:06.933Z,-1.60
2018-03-02T13:34:47.179Z,-1.30
2018-03-02T13:37:14.697Z,-1.30
2018-03-02T13:39:54.111Z,-1.00
2018-03-02T13:42:21.636Z,-1.00
2018-03-02T13:44:49.139Z,-1.10
2018-03-02T13:47:17.593Z,-1.10
2018-03-02T13:49:56.982Z,-0.60
2018-03-02T13:52:24.512Z,-0.10
2018-03-02T13:54:52.007Z,0.10
2018-03-02T13:57:31.435Z,0.00
2018-03-02T13:59:58.962Z,0.00
2018-03-02T14:02:38.456Z,0.10
2018-03-02T14:05:06.737Z,0.40
2018-03-02T14:07:35.032Z,0.50
2018-03-02T14:10:02.538Z,0.50
2018-03-02T14:12:30.039Z,0.50
2018-03-02T14:14:57.569Z,0.40
2018-03-02T14:17:25.087Z,0.30
2018-03-02T14:19:52.603Z,0.10
2018-03-02T14:22:20.948Z,-0.10
2018-03-02T14:24:49.034Z,-0.20
2018-03-02T14:27:18.422Z,-0.30
2018-03-02T14:29:46.914Z,-0.30
2018-03-02T14:32:14.461Z,-0.20
2018-03-02T14:34:42.805Z,-0.30
2018-03-02T14:37:10.314Z,-0.30
2018-03-02T14:39:38.606Z,-0.50
2018-03-02T14:42:06.110Z,-0.60
2018-03-02T14:44:33.632Z,-0.60
2018-03-02T14:47:01.141Z,-0.70
2018-03-02T14:49:29.441Z,-0.90
2018-03-02T14:51:57.707Z,-0.80
2018-03-02T14:54:25.982Z,-0.70
2018-03-02T14:56:54.274Z,-0.60
2018-03-02T14:59:21.769Z,-0.70
2018-03-02T15:01:49.291Z,-0.60
2018-03-02T15:04:17.551Z,-0.70
2018-03-02T15:06:45.073Z,-0.70
2018-03-02T15:09:12.573Z,-0.80
2018-03-02T15:11:40.130Z,-0.70
2018-03-02T15:14:08.400Z,-0.60
2018-03-02T15:16:36.676Z,-0.50
2018-03-02T15:19:04.949Z,-0.50
2018-03-02T15:21:33.222Z,-0.50
2018-03-02T15:24:01.523Z,-0.50
2018-03-02T15:26:29.030Z,-0.50
2018-03-02T15:28:57.325Z,-0.50
2018-03-02T15:31:25.615Z,-0.50
2018-03-02T15:33:53.126Z,-0.50
2018-03-02T15:36:20.654Z,-0.50
2018-03-02T15:38:48.162Z,-0.50
2018-03-02T15:41:16.862Z,-0.50
2018-03-02T15:43:45.883Z,-0.50
2018-03-02T15:46:13.398Z,-0.50
2018-03-02T15:48:41.693Z,-0.60
2018-03-02T15:51:09.213Z,-0.60
2018-03-02T15:53:36.729Z,-0.70
2018-03-02T15:56:04.239Z,-0.70
2018-03-02T15:58:32.521Z,-0.80
2018-03-02T16:01:00.994Z,-0.90
2018-03-02T16:03:29.337Z,-0.90
2018-03-02T16:05:57.645Z,-0.90
2018-03-02T16:08:25.225Z,-1.00
2018-03-02T16:10:52.758Z,-1.00
2018-03-02T16:13:20.264Z,-1.00
2018-03-02T16:15:47.856Z,-1.00
2018-03-02T16:18:17.186Z,-1.10
2018-03-02T16:20:44.737Z,-1.10
2018-03-02T16:23:12.267Z,-1.20
2018-03-02T16:25:39.814Z,-1.20
2018-03-02T16:28:07.375Z,-1.40
2018-03-02T16:30:34.888Z,-1.40
2018-03-02T16:33:02.407Z,-1.30
2018-03-02T16:35:29.910Z,-1.40
2018-03-02T16:37:57.438Z,-1.40
2018-03-02T16:40:25.722Z,-1.40
2018-03-02T16:42:54.014Z,-1.40
2018-03-02T16:45:21.591Z,-1.40
2018-03-02T16:47:49.090Z,-1.40
2018-03-02T16:50:17.165Z,-1.50
2018-03-02T16:52:46.004Z,-1.50
2018-03-02T16:55:13.510Z,-1.50
2018-03-02T16:57:41.011Z,-1.50
2018-03-02T17:00:08.530Z,-1.50
2018-03-02T17:02:36.044Z,-1.50
2018-03-02T17:05:04.350Z,-1.50
2018-03-02T17:07:32.854Z,-1.60
2018-03-02T17:10:00.395Z,-1.60
2018-03-02T17:12:27.919Z,-1.60
2018-03-02T17:14:55.475Z,-1.60
2018-03-02T17:17:23.003Z,-1.50
2018-03-02T17:19:50.558Z,-1.50
2018-03-02T17:22:18.074Z,-1.40
2018-03-02T17:24:46.377Z,-1.50
2018-03-02T17:27:13.905Z,-1.50
2018-03-02T17:29:41.442Z,-1.60
2018-03-02T17:32:08.949Z,-1.60
2018-03-02T17:34:37.249Z,-1.60
2018-03-02T17:37:05.563Z,-1.50
2018-03-02T17:39:33.091Z,-1.50
2018-03-02T17:42:00.617Z,-1.50
2018-03-02T17:44:28.137Z,-1.50
2018-03-02T17:46:55.657Z,-1.60
2018-03-02T17:49:23.225Z,-1.70
2018-03-02T17:51:50.740Z,-1.60
2018-03-02T17:54:19.018Z,-1.50
2018-03-02T17:56:47.788Z,-1.50
2018-03-02T17:59:16.914Z,-1.40
2018-03-02T18:01:44.430Z,-1.40
2018-03-02T18:04:12.001Z,-1.40
2018-03-02T18:06:39.530Z,-1.50
2018-03-02T18:09:07.112Z,-1.60
2018-03-02T18:11:35.414Z,-1.60
2018-03-02T18:14:02.933Z,-1.60
2018-03-02T18:16:30.461Z,-1.60
2018-03-02T18:18:58.742Z,-1.80
2018-03-02T18:21:26.244Z,-1.80
2018-03-02T18:23:53.766Z,-1.80
2018-03-02T18:26:21.269Z,-1.70
2018-03-02T18:28:48.947Z,-1.60
2018-03-02T18:31:16.472Z,-1.70
2018-03-02T18:33:44.002Z,-1.70
2018-03-02T18:36:11.530Z,-1.80
2018-03-02T18:38:39.048Z,-1.80
2018-03-02T18:41:07.396Z,-1.70
2018-03-02T18:43:35.717Z,-1.70
2018-03-02T18:46:03.258Z,-1.70
2018-03-02T18:48:31.628Z,-1.60
2018-03-02T18:50:59.167Z,-1.60
2018-03-02T18:56:24.127Z,-1.50
2018-03-02T19:01:45.708Z,-1.40
2018-03-02T19:04:18.097Z,-1.30
2018-03-02T19:06:48.658Z,-1.30
2018-03-02T19:09:20.651Z,-1.20
2018-03-02T19:11:50.539Z,-1.10
2018-03-02T19:14:21.746Z,-1.00
2018-03-02T19:16:52.911Z,-1.10
2018-03-02T19:19:32.099Z,-1.10
2018-03-02T19:22:03.837Z,-1.10
2018-03-02T19:24:39.797Z,-0.90
2018-03-02T19:30:28.198Z,-1.00
2018-03-02T19:33:06.590Z,-0.90
2018-03-02T19:35:37.369Z,-0.90
2018-03-02T19:38:10.159Z,-1.00
2018-03-02T19:40:40.190Z,-1.00
2018-03-02T19:43:12.925Z,-0.90
2018-03-02T19:45:42.308Z,-1.00
2018-03-02T19:48:14.338Z,-1.00
2018-03-02T19:50:45.731Z,-1.10
2018-03-02T19:53:16.250Z,-1.10
2018-03-02T19:56:00.061Z,-1.10
2018-03-02T20:01:42.763Z,-1.20
2018-03-02T20:04:17.164Z,-1.10
2018-03-02T20:06:50.002Z,-1.20
2018-03-02T20:09:20.632Z,-1.20
2018-03-02T20:12:03.975Z,-1.30
2018-03-02T20:14:35.984Z,-1.20
2018-03-02T20:20:14.265Z,-1.30
2018-03-02T20:22:46.524Z,-1.30
2018-03-02T20:25:17.502Z,-1.30
2018-03-02T20:27:52.206Z,-1.30
2018-03-02T20:30:43.724Z,-1.30
2018-03-02T20:33:15.907Z,-1.10
2018-03-02T20:35:47.025Z,-1.20
2018-03-02T20:38:17.704Z,-1.20
2018-03-02T20:40:50.768Z,-1.10
2018-03-02T20:43:23.127Z,-1.20
2018-03-02T20:45:54.243Z,-1.20
2018-03-02T20:48:38.065Z,-1.30
2018-03-02T20:51:08.258Z,-1.20
2018-03-02T20:53:38.783Z,-1.10
2018-03-02T20:56:08.165Z,-1.20
2018-03-02T20:58:42.891Z,-1.10
2018-03-02T21:01:15.262Z,-1.20
2018-03-02T21:03:45.028Z,-1.20
2018-03-02T21:06:18.129Z,-1.10
2018-03-02T21:08:48.013Z,-1.10
2018-03-02T21:11:24.118Z,-1.00
2018-03-02T21:14:09.329Z,-0.90
2018-03-02T21:16:42.630Z,-0.90
2018-03-02T21:19:22.580Z,-0.90
2018-03-02T21:22:03.683Z,-1.00
2018-03-02T21:27:51.386Z,-0.80
2018-03-02T21:56:33.156Z,-0.70
2018-03-02T21:59:03.415Z,-0.60
2018-03-02T22:01:34.384Z,-0.50
2018-03-02T22:04:04.016Z,-0.50
2018-03-02T22:06:33.406Z,-0.40
2018-03-02T22:09:05.587Z,-0.50
2018-03-02T22:11:37.903Z,-0.60
2018-03-02T22:14:21.156Z,-0.60
2018-03-02T22:16:53.879Z,-0.70
2018-03-02T22:19:25.019Z,-0.70
2018-03-02T22:21:57.530Z,-0.80
2018-03-02T22:24:27.346Z,-0.70
2018-03-02T22:26:57.545Z,-0.80
2018-03-02T22:29:27.878Z,-0.80
2018-03-02T22:31:57.581Z,-0.90
2018-03-02T22:34:28.498Z,-0.70
2018-03-02T22:36:58.991Z,-0.70
2018-03-02T22:39:29.345Z,-0.70
2018-03-02T22:42:00.452Z,-0.60
2018-03-02T22:44:31.457Z,-0.60
2018-03-02T22:47:02.480Z,-0.50
2018-03-02T22:49:31.773Z,-0.50
2018-03-02T22:52:04.232Z,-0.60
2018-03-02T22:57:32.164Z,-0.20
2018-03-02T22:59:59.640Z,-0.80
2018-03-02T23:02:27.115Z,-0.90
2018-03-02T23:04:54.874Z,-0.80
2018-03-02T23:07:22.338Z,-0.70
2018-03-02T23:09:49.818Z,-0.70
2018-03-02T23:12:17.289Z,-0.70
2018-03-02T23:14:44.781Z,-0.70
2018-03-02T23:17:12.251Z,-0.60
2018-03-02T23:19:39.725Z,-0.60
2018-03-02T23:22:07.201Z,-0.60
2018-03-02T23:24:34.685Z,-0.60
2018-03-02T23:27:02.929Z,-0.70
2018-03-02T23:29:30.410Z,-0.70
2018-03-02T23:31:57.902Z,-0.70
2018-03-02T23:34:25.394Z,-0.90
2018-03-02T23:36:52.865Z,-0.90
2018-03-02T23:39:20.356Z,-1.00
2018-03-02T23:41:48.605Z,-1.00
2018-03-02T23:44:16.082Z,-1.00
2018-03-02T23:46:44.569Z,-1.10
2018-03-02T23:49:12.813Z,-1.10
2018-03-02T23:51:40.298Z,-1.10
2018-03-02T23:54:08.541Z,-0.80
2018-03-02T23:56:36.017Z,-0.80
2018-03-02T23:59:03.496Z,-0.80
